sensor_id;sensor_type;location;lat;lon;timestamp;P1;durP1;ratioP1;P2;durP2;ratioP2
8359;SDS011;4217;48.762;11.428;2022-08-20T00:07:47;16.50;;;15.83;;
8359;SDS011;4217;48.762;11.428;2022-08-20T00:17:49;21.90;;;21.00;;
8359;SDS011;4217;48.762;11.428;2022-08-20T00:27:51;20.83;;;20.03;;
8359;SDS011;4217;48.762;11.428;2022-08-20T00:37:53;19.77;;;19.07;;
8359;SDS011;4217;48.762;11.428;2022-08-20T00:48:00;17.77;;;16.97;;
8359;SDS011;4217;48.762;11.428;2022-08-20T00:58:04;22.43;;;21.53;;
8359;SDS011;4217;48.762;11.428;2022-08-20T01:08:10;16.33;;;15.73;;
8359;SDS011;4217;48.762;11.428;2022-08-20T01:18:12;21.27;;;20.37;;
8359;SDS011;4217;48.762;11.428;2022-08-20T01:28:18;23.53;;;22.43;;
8359;SDS011;4217;48.762;11.428;2022-08-20T01:38:23;22.73;;;21.70;;
8359;SDS011;4217;48.762;11.428;2022-08-20T01:48:25;21.43;;;20.57;;
8359;SDS011;4217;48.762;11.428;2022-08-20T01:58:28;24.67;;;23.57;;
8359;SDS011;4217;48.762;11.428;2022-08-20T02:08:30;22.50;;;21.50;;
8359;SDS011;4217;48.762;11.428;2022-08-20T02:18:34;25.93;;;24.73;;
8359;SDS011;4217;48.762;11.428;2022-08-20T02:28:35;24.50;;;23.50;;
8359;SDS011;4217;48.762;11.428;2022-08-20T02:38:38;21.70;;;20.63;;
8359;SDS011;4217;48.762;11.428;2022-08-20T02:48:41;23.40;;;22.40;;
8359;SDS011;4217;48.762;11.428;2022-08-20T02:58:42;27.67;;;26.47;;
8359;SDS011;4217;48.762;11.428;2022-08-20T03:08:44;26.60;;;25.30;;
8359;SDS011;4217;48.762;11.428;2022-08-20T03:18:46;26.83;;;25.60;;
8359;SDS011;4217;48.762;11.428;2022-08-20T03:28:52;28.37;;;26.97;;
8359;SDS011;4217;48.762;11.428;2022-08-20T03:38:54;27.93;;;26.63;;
8359;SDS011;4217;48.762;11.428;2022-08-20T03:48:58;32.73;;;31.03;;
8359;SDS011;4217;48.762;11.428;2022-08-20T03:59:00;31.53;;;29.83;;
8359;SDS011;4217;48.762;11.428;2022-08-20T04:09:02;36.67;;;34.67;;
8359;SDS011;4217;48.762;11.428;2022-08-20T04:19:04;36.50;;;34.37;;
8359;SDS011;4217;48.762;11.428;2022-08-20T04:29:06;37.47;;;35.20;;
8359;SDS011;4217;48.762;11.428;2022-08-20T04:39:08;39.90;;;37.40;;
8359;SDS011;4217;48.762;11.428;2022-08-20T04:49:10;40.10;;;37.80;;
8359;SDS011;4217;48.762;11.428;2022-08-20T04:59:11;44.90;;;42.10;;
8359;SDS011;4217;48.762;11.428;2022-08-20T05:09:13;44.90;;;42.10;;
8359;SDS011;4217;48.762;11.428;2022-08-20T05:19:14;48.27;;;45.17;;
8359;SDS011;4217;48.762;11.428;2022-08-20T05:29:16;53.13;;;49.77;;
8359;SDS011;4217;48.762;11.428;2022-08-20T05:39:18;54.80;;;51.40;;
8359;SDS011;4217;48.762;11.428;2022-08-20T05:49:21;49.00;;;46.20;;
8359;SDS011;4217;48.762;11.428;2022-08-20T05:59:24;50.13;;;46.97;;
8359;SDS011;4217;48.762;11.428;2022-08-20T06:09:26;54.03;;;50.73;;
8359;SDS011;4217;48.762;11.428;2022-08-20T06:19:32;48.37;;;45.30;;
8359;SDS011;4217;48.762;11.428;2022-08-20T06:29:35;42.80;;;40.20;;
8359;SDS011;4217;48.762;11.428;2022-08-20T06:39:36;40.67;;;38.37;;
8359;SDS011;4217;48.762;11.428;2022-08-20T06:49:38;40.37;;;37.97;;
8359;SDS011;4217;48.762;11.428;2022-08-20T06:59:40;38.83;;;36.63;;
8359;SDS011;4217;48.762;11.428;2022-08-20T07:09:42;35.00;;;33.07;;
8359;SDS011;4217;48.762;11.428;2022-08-20T07:19:44;33.73;;;31.93;;
8359;SDS011;4217;48.762;11.428;2022-08-20T07:29:45;32.17;;;30.47;;
8359;SDS011;4217;48.762;11.428;2022-08-20T07:40:26;30.70;;;29.20;;
8359;SDS011;4217;48.762;11.428;2022-08-20T07:50:29;31.53;;;30.00;;
8359;SDS011;4217;48.762;11.428;2022-08-20T08:00:32;30.57;;;28.97;;
8359;SDS011;4217;48.762;11.428;2022-08-20T08:10:33;27.87;;;26.37;;
8359;SDS011;4217;48.762;11.428;2022-08-20T08:20:38;23.90;;;22.70;;
8359;SDS011;4217;48.762;11.428;2022-08-20T08:30:47;25.23;;;23.90;;
8359;SDS011;4217;48.762;11.428;2022-08-20T08:40:49;24.00;;;22.80;;
8359;SDS011;4217;48.762;11.428;2022-08-20T08:51:02;21.87;;;20.67;;
8359;SDS011;4217;48.762;11.428;2022-08-20T09:01:12;25.47;;;24.17;;
8359;SDS011;4217;48.762;11.428;2022-08-20T09:11:44;25.20;;;24.10;;
8359;SDS011;4217;48.762;11.428;2022-08-20T09:21:48;22.10;;;21.10;;
8359;SDS011;4217;48.762;11.428;2022-08-20T09:31:50;19.07;;;18.03;;
8359;SDS011;4217;48.762;11.428;2022-08-20T09:41:52;13.60;;;12.80;;
8359;SDS011;4217;48.762;11.428;2022-08-20T09:51:54;12.07;;;11.47;;
8359;SDS011;4217;48.762;11.428;2022-08-20T10:01:56;10.57;;;9.97;;
8359;SDS011;4217;48.762;11.428;2022-08-20T10:11:58;9.67;;;9.17;;
8359;SDS011;4217;48.762;11.428;2022-08-20T10:21:59;8.97;;;8.37;;
8359;SDS011;4217;48.762;11.428;2022-08-20T10:32:09;8.87;;;8.27;;
8359;SDS011;4217;48.762;11.428;2022-08-20T10:42:14;8.43;;;7.83;;
8359;SDS011;4217;48.762;11.428;2022-08-20T10:52:16;10.83;;;10.23;;
8359;SDS011;4217;48.762;11.428;2022-08-20T11:02:18;10.47;;;9.80;;
8359;SDS011;4217;48.762;11.428;2022-08-20T11:12:21;8.77;;;8.17;;
8359;SDS011;4217;48.762;11.428;2022-08-20T11:22:23;10.13;;;9.37;;
8359;SDS011;4217;48.762;11.428;2022-08-20T11:32:26;8.40;;;7.90;;
8359;SDS011;4217;48.762;11.428;2022-08-20T11:42:27;8.98;;;8.48;;
8359;SDS011;4217;48.762;11.428;2022-08-20T11:52:29;12.23;;;11.15;;
8359;SDS011;4217;48.762;11.428;2022-08-20T12:02:31;9.73;;;9.02;;
8359;SDS011;4217;48.762;11.428;2022-08-20T12:12:33;8.27;;;7.78;;
8359;SDS011;4217;48.762;11.428;2022-08-20T12:22:35;9.05;;;8.32;;
8359;SDS011;4217;48.762;11.428;2022-08-20T12:32:37;9.82;;;9.23;;
8359;SDS011;4217;48.762;11.428;2022-08-20T12:42:39;11.20;;;10.30;;
8359;SDS011;4217;48.762;11.428;2022-08-20T12:52:41;12.27;;;11.47;;
8359;SDS011;4217;48.762;11.428;2022-08-20T13:02:43;12.77;;;11.97;;
8359;SDS011;4217;48.762;11.428;2022-08-20T13:12:44;12.93;;;12.03;;
8359;SDS011;4217;48.762;11.428;2022-08-20T13:22:46;15.37;;;14.43;;
8359;SDS011;4217;48.762;11.428;2022-08-20T13:32:47;14.63;;;13.80;;
8359;SDS011;4217;48.762;11.428;2022-08-20T13:42:49;14.27;;;13.47;;
8359;SDS011;4217;48.762;11.428;2022-08-20T13:52:51;14.13;;;13.23;;
8359;SDS011;4217;48.762;11.428;2022-08-20T14:02:53;13.10;;;12.30;;
8359;SDS011;4217;48.762;11.428;2022-08-20T14:12:54;5.87;;;5.47;;
8359;SDS011;4217;48.762;11.428;2022-08-20T14:22:56;4.80;;;4.50;;
8359;SDS011;4217;48.762;11.428;2022-08-20T14:32:58;5.10;;;4.80;;
8359;SDS011;4217;48.762;11.428;2022-08-20T14:43:00;6.20;;;5.70;;
8359;SDS011;4217;48.762;11.428;2022-08-20T14:53:03;8.03;;;7.23;;
8359;SDS011;4217;48.762;11.428;2022-08-20T15:03:05;7.60;;;7.13;;
8359;SDS011;4217;48.762;11.428;2022-08-20T15:13:07;8.20;;;7.63;;
8359;SDS011;4217;48.762;11.428;2022-08-20T15:23:09;7.40;;;6.90;;
8359;SDS011;4217;48.762;11.428;2022-08-20T15:33:10;6.97;;;6.53;;
8359;SDS011;4217;48.762;11.428;2022-08-20T15:43:12;17.73;;;16.93;;
8359;SDS011;4217;48.762;11.428;2022-08-20T15:53:25;19.70;;;18.80;;
8359;SDS011;4217;48.762;11.428;2022-08-20T16:03:46;16.87;;;16.17;;
8359;SDS011;4217;48.762;11.428;2022-08-20T16:14:08;18.23;;;17.33;;
8359;SDS011;4217;48.762;11.428;2022-08-20T16:24:15;20.63;;;19.53;;
8359;SDS011;4217;48.762;11.428;2022-08-20T16:34:24;15.77;;;15.07;;
8359;SDS011;4217;48.762;11.428;2022-08-20T16:44:35;14.23;;;13.60;;
8359;SDS011;4217;48.762;11.428;2022-08-20T16:54:42;11.60;;;11.10;;
8359;SDS011;4217;48.762;11.428;2022-08-20T17:04:49;11.13;;;10.67;;
8359;SDS011;4217;48.762;11.428;2022-08-20T17:15:00;13.57;;;12.97;;
8359;SDS011;4217;48.762;11.428;2022-08-20T17:25:10;13.60;;;13.00;;
8359;SDS011;4217;48.762;11.428;2022-08-20T17:35:19;11.17;;;10.57;;
8359;SDS011;4217;48.762;11.428;2022-08-20T17:45:25;16.80;;;16.00;;
8359;SDS011;4217;48.762;11.428;2022-08-20T17:55:31;16.33;;;15.63;;
8359;SDS011;4217;48.762;11.428;2022-08-20T18:05:35;15.07;;;14.47;;
8359;SDS011;4217;48.762;11.428;2022-08-20T18:15:48;14.80;;;14.20;;
8359;SDS011;4217;48.762;11.428;2022-08-20T18:26:13;14.40;;;13.80;;
8359;SDS011;4217;48.762;11.428;2022-08-20T18:46:21;13.47;;;12.77;;
8359;SDS011;4217;48.762;11.428;2022-08-20T18:56:31;13.60;;;12.80;;
8359;SDS011;4217;48.762;11.428;2022-08-20T19:06:43;17.80;;;17.00;;
8359;SDS011;4217;48.762;11.428;2022-08-20T19:16:51;19.63;;;18.67;;
8359;SDS011;4217;48.762;11.428;2022-08-20T19:27:01;20.10;;;19.30;;
8359;SDS011;4217;48.762;11.428;2022-08-20T19:37:13;20.90;;;20.10;;
8359;SDS011;4217;48.762;11.428;2022-08-20T19:47:48;20.43;;;19.43;;
8359;SDS011;4217;48.762;11.428;2022-08-20T19:57:59;18.00;;;17.17;;
8359;SDS011;4217;48.762;11.428;2022-08-20T20:08:02;19.27;;;18.17;;
8359;SDS011;4217;48.762;11.428;2022-08-20T20:18:05;17.60;;;16.90;;
8359;SDS011;4217;48.762;11.428;2022-08-20T20:28:09;16.97;;;16.17;;
8359;SDS011;4217;48.762;11.428;2022-08-20T20:38:24;20.13;;;19.30;;
8359;SDS011;4217;48.762;11.428;2022-08-20T20:48:28;15.57;;;14.93;;
8359;SDS011;4217;48.762;11.428;2022-08-20T20:58:34;17.27;;;16.57;;
8359;SDS011;4217;48.762;11.428;2022-08-20T21:08:36;19.53;;;18.63;;
8359;SDS011;4217;48.762;11.428;2022-08-20T21:18:38;21.67;;;20.70;;
8359;SDS011;4217;48.762;11.428;2022-08-20T21:28:41;21.90;;;21.07;;
8359;SDS011;4217;48.762;11.428;2022-08-20T21:38:42;17.40;;;16.60;;
8359;SDS011;4217;48.762;11.428;2022-08-20T21:48:44;17.37;;;16.67;;
8359;SDS011;4217;48.762;11.428;2022-08-20T21:58:48;18.43;;;17.33;;
8359;SDS011;4217;48.762;11.428;2022-08-20T22:08:53;14.53;;;13.93;;
8359;SDS011;4217;48.762;11.428;2022-08-20T22:18:55;14.20;;;13.40;;
8359;SDS011;4217;48.762;11.428;2022-08-20T22:28:57;15.10;;;14.50;;
8359;SDS011;4217;48.762;11.428;2022-08-20T22:38:58;15.67;;;14.97;;
8359;SDS011;4217;48.762;11.428;2022-08-20T22:49:00;15.10;;;14.30;;
8359;SDS011;4217;48.762;11.428;2022-08-20T22:59:03;17.60;;;16.80;;
8359;SDS011;4217;48.762;11.428;2022-08-20T23:09:05;16.10;;;15.30;;
8359;SDS011;4217;48.762;11.428;2022-08-20T23:19:07;16.10;;;15.50;;
8359;SDS011;4217;48.762;11.428;2022-08-20T23:29:11;14.23;;;13.57;;
8359;SDS011;4217;48.762;11.428;2022-08-20T23:39:22;20.00;;;19.10;;
8359;SDS011;4217;48.762;11.428;2022-08-20T23:49:25;17.30;;;16.60;;
8359;SDS011;4217;48.762;11.428;2022-08-20T23:59:28;16.03;;;15.27;;
